createdAt,value
2017-10-25T00:00:04.686Z,60.96
2017-10-25T00:00:36.769Z,61.16
2017-10-25T00:01:08.999Z,60.96
2017-10-25T00:01:41.129Z,60.77
2017-10-25T00:02:13.165Z,61.03
2017-10-25T00:02:45.311Z,61.06
2017-10-25T00:03:17.580Z,60.77
2017-10-25T00:03:49.683Z,61.06
2017-10-25T00:04:21.817Z,61.06
2017-10-25T00:04:53.887Z,61.16
2017-10-25T00:05:26.082Z,61.22
2017-10-25T00:05:58.231Z,61.22
2017-10-25T00:06:30.298Z,60.77
2017-10-25T00:07:02.372Z,60.86
2017-10-25T00:07:34.501Z,61.13
2017-10-25T00:08:06.713Z,61.13
2017-10-25T00:08:38.919Z,61.03
2017-10-25T00:09:11.007Z,60.86
2017-10-25T00:09:43.169Z,61.06
2017-10-25T00:10:15.303Z,61.16
2017-10-25T00:10:47.361Z,60.86
2017-10-25T00:11:19.542Z,61.06
2017-10-25T00:11:51.611Z,61.22
2017-10-25T00:12:23.768Z,60.96
2017-10-25T00:12:56.040Z,61.06
2017-10-25T00:13:28.127Z,60.83
2017-10-25T00:14:00.228Z,61.06
2017-10-25T00:14:32.372Z,61.16
2017-10-25T00:15:04.746Z,61.06
2017-10-25T00:15:36.946Z,61.06
2017-10-25T00:16:09.031Z,61.06
2017-10-25T00:16:41.225Z,61.03
2017-10-25T00:17:13.356Z,61.22
2017-10-25T00:17:45.505Z,61.03
2017-10-25T00:18:17.710Z,60.93
2017-10-25T00:18:49.845Z,61.41
2017-10-25T00:19:22.715Z,61.35
2017-10-25T00:19:54.847Z,61.16
2017-10-25T00:20:26.988Z,61.13
2017-10-25T00:20:59.069Z,60.86
2017-10-25T00:21:31.217Z,61.03
2017-10-25T00:22:03.398Z,61.03
2017-10-25T00:22:35.481Z,61.16
2017-10-25T00:23:07.630Z,61.64
2017-10-25T00:23:39.665Z,61.25
2017-10-25T00:24:11.886Z,61.16
2017-10-25T00:24:44.029Z,61.64
2017-10-25T00:25:16.213Z,61.16
2017-10-25T00:25:48.360Z,61.22
2017-10-25T00:26:20.504Z,61.35
2017-10-25T00:26:52.587Z,61.44
2017-10-25T00:27:24.743Z,61.32
2017-10-25T00:27:57.024Z,61.13
2017-10-25T00:28:29.021Z,61.16
2017-10-25T00:29:01.173Z,61.13
2017-10-25T00:29:33.323Z,60.93
2017-10-25T00:30:05.572Z,61.06
2017-10-25T00:30:37.717Z,60.96
2017-10-25T00:31:09.975Z,61.32
2017-10-25T00:31:42.153Z,61.51
2017-10-25T00:32:14.338Z,61.32
2017-10-25T00:32:46.542Z,61.06
2017-10-25T00:33:18.631Z,61.41
2017-10-25T00:33:50.812Z,61.25
2017-10-25T00:34:22.955Z,61.44
2017-10-25T00:34:55.110Z,61.41
2017-10-25T00:35:27.275Z,60.93
2017-10-25T00:35:59.400Z,61.03
2017-10-25T00:36:31.479Z,60.96
2017-10-25T00:37:03.602Z,61.13
2017-10-25T00:37:35.739Z,61.13
2017-10-25T00:38:07.990Z,60.93
2017-10-25T00:38:40.202Z,61.06
2017-10-25T00:39:12.308Z,60.93
2017-10-25T00:39:44.612Z,61.06
2017-10-25T00:40:16.837Z,60.93
2017-10-25T00:40:48.972Z,60.93
2017-10-25T00:41:21.101Z,60.96
2017-10-25T00:41:53.367Z,61.22
2017-10-25T00:42:25.444Z,61.35
2017-10-25T00:42:57.641Z,61.41
2017-10-25T00:43:29.782Z,61.22
2017-10-25T00:44:01.966Z,60.93
2017-10-25T00:44:34.102Z,61.35
2017-10-25T00:45:06.207Z,61.41
2017-10-25T00:45:38.341Z,60.93
2017-10-25T00:46:10.423Z,61.22
2017-10-25T00:46:42.576Z,61.03
2017-10-25T00:47:14.778Z,60.93
2017-10-25T00:47:46.863Z,60.77
2017-10-25T00:48:18.938Z,61.25
2017-10-25T00:48:51.073Z,61.32
2017-10-25T00:49:23.225Z,60.93
2017-10-25T00:49:55.416Z,61.13
2017-10-25T00:50:27.547Z,61.25
2017-10-25T00:50:59.722Z,60.83
2017-10-25T00:51:31.858Z,60.93
2017-10-25T00:52:04.035Z,60.93
2017-10-25T00:52:36.144Z,61.22
2017-10-25T00:53:08.372Z,61.25
2017-10-25T00:53:40.502Z,61.41
2017-10-25T00:54:12.755Z,61.32
2017-10-25T00:54:44.846Z,61.35
2017-10-25T00:55:17.088Z,61.22
2017-10-25T00:55:49.169Z,61.22
2017-10-25T00:56:21.367Z,61.32
2017-10-25T00:56:53.558Z,61.32
2017-10-25T00:57:25.684Z,61.32
2017-10-25T00:57:57.875Z,61.03
2017-10-25T00:58:30.049Z,61.54
2017-10-25T00:59:02.176Z,61.51
2017-10-25T00:59:34.257Z,61.32
2017-10-25T01:00:06.546Z,61.13
2017-10-25T01:00:38.891Z,61.13
2017-10-25T01:01:11.052Z,60.93
2017-10-25T01:01:43.139Z,61.03
2017-10-25T01:02:15.231Z,61.13
2017-10-25T01:02:47.364Z,61.03
2017-10-25T01:03:19.486Z,61.51
2017-10-25T01:03:51.676Z,61.13
2017-10-25T01:04:23.860Z,61.13
2017-10-25T01:04:56.061Z,61.51
2017-10-25T01:05:28.212Z,61.51
2017-10-25T01:06:00.420Z,61.22
2017-10-25T01:06:32.498Z,60.93
2017-10-25T01:07:04.575Z,61.8
2017-10-25T01:07:36.907Z,61.44
2017-10-25T01:08:08.994Z,61.51
2017-10-25T01:08:41.191Z,61.41
2017-10-25T01:09:14.022Z,61.51
2017-10-25T01:09:46.216Z,61.51
2017-10-25T01:10:18.294Z,61.41
2017-10-25T01:10:50.391Z,61.22
2017-10-25T01:11:22.460Z,61.8
2017-10-25T01:11:54.748Z,61.61
2017-10-25T01:12:26.913Z,61.32
2017-10-25T01:12:58.921Z,61.41
2017-10-25T01:13:32.061Z,61.32
2017-10-25T01:14:04.253Z,61.44
2017-10-25T01:14:36.430Z,61.61
2017-10-25T01:15:09.521Z,61.71
2017-10-25T01:15:41.556Z,61.71
2017-10-25T01:16:13.597Z,61.61
2017-10-25T01:16:45.623Z,61.99
2017-10-25T01:17:17.886Z,61.71
2017-10-25T01:17:49.957Z,61.9
2017-10-25T01:18:22.106Z,61.61
2017-10-25T01:18:54.301Z,61.41
2017-10-25T01:19:26.512Z,61.71
2017-10-25T01:19:58.646Z,61.41
2017-10-25T01:20:30.756Z,61.8
2017-10-25T01:21:02.950Z,61.61
2017-10-25T01:21:35.086Z,61.8
2017-10-25T01:22:07.181Z,61.41
2017-10-25T01:22:39.264Z,61.32
2017-10-25T01:23:11.318Z,61.51
2017-10-25T01:23:43.510Z,61.54
2017-10-25T01:24:15.708Z,61.61
2017-10-25T01:24:47.813Z,61.41
2017-10-25T01:25:19.907Z,61.9
2017-10-25T01:25:52.039Z,61.61
2017-10-25T01:26:24.216Z,61.41
2017-10-25T01:26:56.365Z,61.32
2017-10-25T01:27:28.421Z,61.71
2017-10-25T01:28:00.573Z,61.71
2017-10-25T01:28:32.719Z,61.41
2017-10-25T01:29:04.830Z,61.71
2017-10-25T01:29:36.964Z,61.61
2017-10-25T01:30:09.078Z,61.61
2017-10-25T01:30:41.196Z,61.41
2017-10-25T01:31:13.290Z,61.71
2017-10-25T01:31:45.407Z,61.32
2017-10-25T01:32:17.558Z,61.41
2017-10-25T01:32:49.774Z,61.41
2017-10-25T01:33:21.905Z,61.32
2017-10-25T01:33:54.028Z,61.32
2017-10-25T01:34:26.226Z,61.71
2017-10-25T01:34:58.245Z,61.32
2017-10-25T01:35:30.259Z,61.41
2017-10-25T01:36:02.394Z,61.71
2017-10-25T01:36:34.534Z,61.32
2017-10-25T01:37:06.608Z,61.41
2017-10-25T01:37:38.752Z,61.22
2017-10-25T01:38:10.858Z,61.41
2017-10-25T01:38:43.058Z,61.32
2017-10-25T01:39:15.174Z,61.41
2017-10-25T01:39:47.210Z,61.32
2017-10-25T01:40:19.273Z,61.32
2017-10-25T01:40:51.356Z,61.32
2017-10-25T01:41:23.459Z,61.32
2017-10-25T01:41:55.664Z,61.61
2017-10-25T01:42:27.741Z,61.41
2017-10-25T01:42:59.832Z,61.51
2017-10-25T01:43:31.846Z,61.61
2017-10-25T01:44:03.988Z,61.32
2017-10-25T01:44:36.123Z,61.41
2017-10-25T01:45:08.442Z,61.61
2017-10-25T01:45:40.520Z,61.32
2017-10-25T01:46:12.665Z,61.22
2017-10-25T01:46:44.806Z,61.71
2017-10-25T01:47:16.897Z,61.71
2017-10-25T01:47:48.981Z,61.8
2017-10-25T01:48:21.054Z,61.51
2017-10-25T01:48:53.170Z,61.32
2017-10-25T01:49:25.412Z,61.8
2017-10-25T01:49:57.601Z,61.41
2017-10-25T01:50:29.800Z,61.41
2017-10-25T01:51:01.949Z,61.8
2017-10-25T01:51:34.084Z,61.8
2017-10-25T01:52:06.218Z,61.51
2017-10-25T01:52:38.437Z,61.71
2017-10-25T01:53:10.563Z,61.71
2017-10-25T01:53:42.706Z,61.8
2017-10-25T01:54:14.846Z,61.61
2017-10-25T01:54:47.039Z,61.71
2017-10-25T01:55:19.208Z,61.71
2017-10-25T01:55:51.471Z,61.71
2017-10-25T01:56:23.607Z,61.51
2017-10-25T01:56:55.692Z,61.41
2017-10-25T01:57:27.830Z,61.71
2017-10-25T01:57:59.995Z,61.99
2017-10-25T01:58:32.065Z,61.8
2017-10-25T01:59:04.137Z,61.9
2017-10-25T01:59:36.214Z,61.9
2017-10-25T02:00:08.269Z,61.51
2017-10-25T02:00:40.336Z,61.51
2017-10-25T02:01:12.378Z,61.61
2017-10-25T02:01:44.663Z,61.61
2017-10-25T02:02:16.679Z,61.99
2017-10-25T02:02:48.872Z,61.61
2017-10-25T02:03:21.034Z,61.8
2017-10-25T02:03:53.260Z,61.71
2017-10-25T02:04:25.429Z,61.8
2017-10-25T02:04:57.593Z,61.99
2017-10-25T02:05:29.786Z,61.61
2017-10-25T02:06:01.975Z,61.8
2017-10-25T02:06:34.118Z,61.71
2017-10-25T02:07:06.361Z,61.8
2017-10-25T02:07:38.641Z,61.71
2017-10-25T02:08:10.771Z,61.51
2017-10-25T02:08:42.941Z,61.71
2017-10-25T02:09:15.149Z,61.51
2017-10-25T02:09:47.288Z,61.61
2017-10-25T02:10:19.406Z,61.71
2017-10-25T02:10:51.613Z,61.61
2017-10-25T02:11:23.951Z,61.71
2017-10-25T02:11:56.161Z,61.51
2017-10-25T02:12:28.351Z,61.71
2017-10-25T02:13:00.465Z,61.8
2017-10-25T02:13:32.483Z,61.8
2017-10-25T02:14:04.725Z,61.61
2017-10-25T02:14:36.802Z,61.51
2017-10-25T02:15:08.856Z,61.8
2017-10-25T02:15:40.934Z,61.41
2017-10-25T02:16:13.124Z,61.41
2017-10-25T02:16:45.212Z,61.51
2017-10-25T02:17:17.353Z,61.51
2017-10-25T02:17:49.440Z,61.8
2017-10-25T02:18:21.637Z,61.41
2017-10-25T02:18:53.717Z,61.41
2017-10-25T02:19:25.855Z,61.41
2017-10-25T02:19:57.896Z,61.22
2017-10-25T02:20:30.045Z,61.41
2017-10-25T02:21:02.173Z,61.99
2017-10-25T02:21:34.398Z,61.41
2017-10-25T02:22:06.517Z,61.99
2017-10-25T02:22:38.544Z,61.71
2017-10-25T02:23:10.567Z,61.41
2017-10-25T02:23:42.659Z,61.41
2017-10-25T02:24:14.862Z,61.71
2017-10-25T02:24:46.991Z,61.9
2017-10-25T02:25:19.126Z,61.71
2017-10-25T02:25:51.268Z,61.71
2017-10-25T02:26:23.345Z,61.8
2017-10-25T02:26:55.480Z,61.71
2017-10-25T02:27:27.592Z,61.51
2017-10-25T02:27:59.696Z,61.51
2017-10-25T02:28:31.950Z,61.51
2017-10-25T02:29:04.106Z,61.51
2017-10-25T02:29:36.295Z,61.9
2017-10-25T02:30:08.541Z,61.51
2017-10-25T02:30:40.769Z,61.41
2017-10-25T02:31:12.956Z,61.71
2017-10-25T02:31:45.159Z,61.61
2017-10-25T02:32:17.195Z,61.51
2017-10-25T02:32:49.380Z,61.51
2017-10-25T02:33:21.470Z,61.41
2017-10-25T02:33:53.659Z,61.51
2017-10-25T02:34:25.794Z,61.51
2017-10-25T02:34:57.892Z,61.61
2017-10-25T02:35:29.971Z,61.51
2017-10-25T02:36:02.081Z,61.51
2017-10-25T02:36:34.149Z,61.71
2017-10-25T02:37:06.352Z,61.61
2017-10-25T02:37:38.445Z,61.61
2017-10-25T02:38:10.464Z,61.71
2017-10-25T02:38:42.585Z,61.61
2017-10-25T02:39:14.654Z,61.99
2017-10-25T02:39:46.798Z,61.8
2017-10-25T02:40:18.876Z,61.61
2017-10-25T02:40:51.129Z,61.61
2017-10-25T02:41:23.281Z,61.71
2017-10-25T02:41:56.081Z,61.61
2017-10-25T02:42:28.207Z,61.71
2017-10-25T02:43:00.241Z,61.51
2017-10-25T02:43:32.325Z,61.61
2017-10-25T02:44:04.598Z,61.71
2017-10-25T02:44:36.725Z,61.71
2017-10-25T02:45:08.871Z,62.09
2017-10-25T02:45:41.070Z,61.61
2017-10-25T02:46:13.144Z,61.99
2017-10-25T02:46:45.201Z,61.99
2017-10-25T02:47:17.311Z,61.51
2017-10-25T02:47:49.461Z,61.99
2017-10-25T02:48:21.534Z,61.71
2017-10-25T02:48:53.609Z,61.8
2017-10-25T02:49:25.693Z,61.71
2017-10-25T02:49:57.776Z,61.71
2017-10-25T02:50:29.920Z,61.9
2017-10-25T02:51:02.078Z,61.71
2017-10-25T02:51:34.224Z,61.71
2017-10-25T02:52:06.252Z,61.71
2017-10-25T02:52:38.342Z,61.9
2017-10-25T02:53:10.546Z,61.61
2017-10-25T02:53:42.737Z,61.9
2017-10-25T02:54:14.810Z,61.71
2017-10-25T02:54:46.937Z,61.71
2017-10-25T02:55:19.121Z,61.71
2017-10-25T02:55:51.445Z,61.9
2017-10-25T02:56:23.465Z,62.09
2017-10-25T02:56:55.649Z,61.71
2017-10-25T02:57:27.681Z,61.9
2017-10-25T02:57:59.933Z,61.9
2017-10-25T02:58:32.056Z,61.71
2017-10-25T02:59:04.193Z,61.71
2017-10-25T02:59:36.291Z,61.71
2017-10-25T03:00:08.442Z,61.9
2017-10-25T03:00:40.550Z,61.9
2017-10-25T03:01:13.620Z,61.71
2017-10-25T03:01:45.783Z,61.71
2017-10-25T03:02:18.024Z,61.9
2017-10-25T03:02:50.100Z,61.71
2017-10-25T03:03:22.211Z,61.71
2017-10-25T03:03:54.240Z,61.71
2017-10-25T03:04:26.371Z,61.32
2017-10-25T03:04:58.482Z,61.71
2017-10-25T03:05:30.595Z,61.41
2017-10-25T03:06:02.814Z,61.99
2017-10-25T03:06:34.935Z,62.57
2017-10-25T03:07:07.054Z,62.57
2017-10-25T03:07:39.071Z,61.41
2017-10-25T03:08:11.148Z,62.66
2017-10-25T03:08:43.158Z,61.41
2017-10-25T03:09:15.227Z,61.61
2017-10-25T03:09:47.314Z,62.38
2017-10-25T03:10:19.455Z,61.71
2017-10-25T03:10:51.552Z,62.48
2017-10-25T03:11:23.847Z,61.71
2017-10-25T03:11:56.085Z,61.9
2017-10-25T03:12:28.117Z,62.38
2017-10-25T03:13:00.262Z,61.71
2017-10-25T03:13:32.472Z,61.9
2017-10-25T03:14:04.660Z,61.61
2017-10-25T03:14:36.712Z,61.61
2017-10-25T03:15:08.800Z,62.48
2017-10-25T03:15:40.996Z,61.8
2017-10-25T03:16:13.057Z,62.28
2017-10-25T03:16:45.160Z,61.8
2017-10-25T03:17:17.345Z,61.9
2017-10-25T03:17:49.536Z,61.8
2017-10-25T03:18:21.667Z,61.9
2017-10-25T03:18:53.734Z,62.57
2017-10-25T03:19:25.814Z,61.71
2017-10-25T03:19:57.963Z,62.57
2017-10-25T03:20:30.154Z,62.38
2017-10-25T03:21:02.231Z,62.57
2017-10-25T03:21:34.359Z,61.61
2017-10-25T03:22:06.541Z,62.48
2017-10-25T03:22:38.585Z,62.38
2017-10-25T03:23:11.347Z,61.8
2017-10-25T03:23:43.550Z,62.28
2017-10-25T03:24:15.736Z,62.28
2017-10-25T03:24:47.807Z,62.28
2017-10-25T03:25:19.953Z,61.8
2017-10-25T03:25:52.043Z,61.9
2017-10-25T03:26:24.062Z,61.9
2017-10-25T03:26:56.151Z,62.28
2017-10-25T03:27:28.260Z,62.28
2017-10-25T03:28:00.468Z,62.48
2017-10-25T03:28:32.617Z,62.28
2017-10-25T03:29:04.804Z,61.9
2017-10-25T03:29:36.982Z,62.48
2017-10-25T03:30:09.202Z,62.28
2017-10-25T03:30:41.326Z,62.48
2017-10-25T03:31:13.457Z,61.99
2017-10-25T03:31:45.547Z,61.9
2017-10-25T03:32:17.621Z,62.28
2017-10-25T03:32:49.815Z,62.18
2017-10-25T03:33:21.945Z,62.38
2017-10-25T03:33:54.155Z,62.09
2017-10-25T03:34:26.378Z,62.28
2017-10-25T03:34:58.502Z,62.28
2017-10-25T03:35:30.632Z,62.28
2017-10-25T03:36:02.768Z,62.28
2017-10-25T03:36:34.971Z,62.38
2017-10-25T03:37:07.175Z,62.38
2017-10-25T03:37:39.304Z,62.28
2017-10-25T03:38:11.373Z,62.28
2017-10-25T03:38:43.395Z,62.48
2017-10-25T03:39:15.571Z,61.99
2017-10-25T03:39:47.657Z,62.09
2017-10-25T03:40:19.990Z,62.09
2017-10-25T03:40:52.107Z,62.28
2017-10-25T03:41:24.186Z,61.8
2017-10-25T03:41:56.339Z,62.09
2017-10-25T03:42:28.487Z,62.09
2017-10-25T03:43:00.683Z,62.28
2017-10-25T03:43:32.957Z,62.09
2017-10-25T03:44:04.988Z,62.09
2017-10-25T03:44:37.137Z,62.09
2017-10-25T03:45:09.158Z,62.09
2017-10-25T03:45:41.349Z,62.09
2017-10-25T03:46:13.470Z,62.09
2017-10-25T03:46:45.605Z,62.28
2017-10-25T03:47:17.792Z,62.48
2017-10-25T03:47:49.969Z,62.09
2017-10-25T03:48:22.065Z,62.09
2017-10-25T03:48:54.072Z,62.09
2017-10-25T03:49:26.221Z,62.38
2017-10-25T03:49:58.374Z,62.18
2017-10-25T03:50:30.561Z,62.09
2017-10-25T03:51:02.701Z,62.18
2017-10-25T03:51:34.836Z,62.18
2017-10-25T03:52:07.081Z,62.28
2017-10-25T03:52:39.259Z,62.18
2017-10-25T03:53:11.477Z,62.18
2017-10-25T03:53:43.606Z,62.48
2017-10-25T03:54:15.845Z,62.18
2017-10-25T03:54:47.979Z,62.18
2017-10-25T03:55:20.167Z,62.38
2017-10-25T03:55:52.288Z,62.28
2017-10-25T03:56:24.479Z,62.28
2017-10-25T03:56:56.580Z,62.28
2017-10-25T03:57:28.746Z,62.28
2017-10-25T03:58:00.918Z,62.38
2017-10-25T03:58:33.090Z,62.28
2017-10-25T03:59:05.234Z,62.38
2017-10-25T03:59:37.259Z,62.38
2017-10-25T04:00:09.354Z,62.28
2017-10-25T04:00:41.548Z,62.28
2017-10-25T04:01:13.684Z,62.28
2017-10-25T04:01:45.759Z,62.38
2017-10-25T04:02:17.852Z,62.28
2017-10-25T04:02:49.964Z,62.28
2017-10-25T04:03:22.053Z,62.18
2017-10-25T04:03:54.136Z,62.18
2017-10-25T04:04:26.205Z,62.28
2017-10-25T04:04:58.397Z,62.28
2017-10-25T04:05:30.472Z,62.28
2017-10-25T04:06:03.383Z,62.28
2017-10-25T04:06:35.477Z,62.18
2017-10-25T04:07:07.713Z,62.18
2017-10-25T04:07:39.825Z,61.9
2017-10-25T04:08:11.978Z,62.28
2017-10-25T04:08:44.143Z,62.28
2017-10-25T04:09:17.056Z,62.18
2017-10-25T04:09:49.184Z,62.18
2017-10-25T04:10:21.314Z,62.18
2017-10-25T04:10:53.442Z,62.18
2017-10-25T04:11:25.734Z,62.28
2017-10-25T04:11:57.881Z,62.18
2017-10-25T04:12:29.991Z,62.18
2017-10-25T04:13:02.171Z,62.38
2017-10-25T04:13:34.362Z,62.28
2017-10-25T04:14:06.500Z,62.28
2017-10-25T04:14:38.630Z,62.18
2017-10-25T04:15:10.778Z,62.28
2017-10-25T04:15:42.955Z,62.28
2017-10-25T04:16:15.262Z,61.99
2017-10-25T04:16:47.347Z,62.09
2017-10-25T04:17:19.478Z,62.28
2017-10-25T04:17:51.610Z,62.28
2017-10-25T04:18:23.684Z,62.18
2017-10-25T04:18:55.723Z,62.09
2017-10-25T04:19:27.862Z,62.18
2017-10-25T04:20:00.101Z,62.28
2017-10-25T04:20:32.202Z,61.9
2017-10-25T04:21:04.296Z,62.28
2017-10-25T04:21:36.318Z,62.18
2017-10-25T04:22:08.400Z,62.28
2017-10-25T04:22:40.484Z,62.18
2017-10-25T04:23:12.640Z,62.18
2017-10-25T04:23:44.755Z,62.28
2017-10-25T04:24:16.826Z,62.09
2017-10-25T04:24:48.908Z,62.18
2017-10-25T04:25:21.052Z,62.28
2017-10-25T04:25:53.201Z,62.09
2017-10-25T04:26:25.472Z,62.09
2017-10-25T04:26:57.597Z,62.18
2017-10-25T04:27:29.717Z,62.28
2017-10-25T04:28:01.842Z,62.38
2017-10-25T04:28:34.072Z,62.18
2017-10-25T04:29:06.199Z,62.09
2017-10-25T04:29:38.278Z,61.9
2017-10-25T04:30:10.343Z,62.18
2017-10-25T04:30:43.322Z,61.9
2017-10-25T04:31:15.556Z,61.99
2017-10-25T04:31:47.670Z,61.99
2017-10-25T04:32:19.899Z,61.99
2017-10-25T04:32:51.968Z,62.09
2017-10-25T04:33:24.154Z,61.9
2017-10-25T04:33:56.353Z,61.99
2017-10-25T04:34:28.506Z,62.09
2017-10-25T04:35:00.612Z,62.09
2017-10-25T04:35:32.921Z,62.18
2017-10-25T04:36:05.081Z,62.18
2017-10-25T04:36:37.105Z,62.28
2017-10-25T04:37:09.363Z,62.09
2017-10-25T04:37:41.504Z,62.09
2017-10-25T04:38:13.577Z,62.18
2017-10-25T04:38:45.772Z,62.18
2017-10-25T04:39:17.899Z,61.9
2017-10-25T04:39:49.940Z,62.09
2017-10-25T04:40:22.029Z,62.18
2017-10-25T04:40:54.163Z,62.18
2017-10-25T04:41:26.314Z,62.18
2017-10-25T04:41:58.362Z,61.61
2017-10-25T04:42:30.499Z,62.09
2017-10-25T04:43:02.634Z,61.99
2017-10-25T04:43:34.878Z,61.9
2017-10-25T04:44:06.902Z,62.09
2017-10-25T04:44:38.973Z,62.18
2017-10-25T04:45:11.137Z,61.99
2017-10-25T04:45:43.210Z,62.28
2017-10-25T04:46:15.284Z,61.99
2017-10-25T04:46:47.357Z,61.9
2017-10-25T04:47:19.464Z,61.99
2017-10-25T04:47:51.750Z,62.18
2017-10-25T04:48:23.812Z,61.9
2017-10-25T04:48:55.893Z,62.18
2017-10-25T04:49:28.021Z,61.99
2017-10-25T04:50:00.143Z,62.09
2017-10-25T04:50:32.217Z,62.09
2017-10-25T04:51:04.321Z,62.38
2017-10-25T04:51:36.418Z,62.28
2017-10-25T04:52:08.589Z,62.09
2017-10-25T04:52:40.865Z,62.09
2017-10-25T04:53:13.043Z,61.9
2017-10-25T04:53:45.235Z,62.09
2017-10-25T04:54:17.507Z,61.99
2017-10-25T04:54:49.773Z,62.18
2017-10-25T04:55:21.919Z,61.8
2017-10-25T04:55:54.053Z,61.99
2017-10-25T04:56:26.138Z,62.18
2017-10-25T04:56:58.380Z,61.99
2017-10-25T04:57:30.516Z,62.18
2017-10-25T04:58:02.613Z,62.38
2017-10-25T04:58:34.789Z,62.28
2017-10-25T04:59:07.000Z,62.18
2017-10-25T04:59:39.301Z,61.99
2017-10-25T05:00:11.507Z,61.9
2017-10-25T05:00:43.710Z,61.9
2017-10-25T05:01:15.944Z,62.28
2017-10-25T05:01:48.151Z,62.09
2017-10-25T05:02:20.280Z,61.9
2017-10-25T05:02:52.357Z,61.9
2017-10-25T05:03:24.560Z,62.28
2017-10-25T05:03:56.762Z,62.18
2017-10-25T05:04:28.846Z,62.09
2017-10-25T05:05:00.988Z,62.18
2017-10-25T05:05:33.231Z,61.9
2017-10-25T05:06:05.310Z,61.9
2017-10-25T05:06:37.447Z,61.9
2017-10-25T05:07:09.537Z,62.28
2017-10-25T05:07:41.672Z,62.18
2017-10-25T05:08:13.915Z,61.99
2017-10-25T05:08:45.988Z,62.28
2017-10-25T05:09:18.122Z,62.18
2017-10-25T05:09:50.218Z,61.99
2017-10-25T05:10:22.423Z,61.99
2017-10-25T05:10:54.630Z,62.09
2017-10-25T05:11:26.804Z,61.99
2017-10-25T05:11:58.947Z,62.18
2017-10-25T05:12:31.097Z,62.18
2017-10-25T05:13:03.170Z,62.18
2017-10-25T05:13:35.262Z,61.99
2017-10-25T05:14:07.437Z,62.18
2017-10-25T05:14:39.567Z,62.09
2017-10-25T05:15:11.690Z,61.99
2017-10-25T05:15:43.972Z,62.09
2017-10-25T05:16:16.104Z,62.09
2017-10-25T05:16:48.203Z,61.9
2017-10-25T05:17:20.301Z,62.28
2017-10-25T05:17:52.318Z,61.99
2017-10-25T05:18:24.392Z,62.18
2017-10-25T05:18:56.554Z,62.38
2017-10-25T05:19:28.757Z,61.99
2017-10-25T05:20:00.956Z,62.18
2017-10-25T05:20:33.071Z,62.18
2017-10-25T05:21:05.079Z,62.09
2017-10-25T05:21:37.192Z,62.09
2017-10-25T05:22:09.281Z,62.09
2017-10-25T05:22:41.438Z,62.09
2017-10-25T05:23:13.600Z,62.18
2017-10-25T05:23:45.793Z,62.18
2017-10-25T05:24:17.870Z,61.99
2017-10-25T05:24:49.988Z,61.99
2017-10-25T05:25:22.075Z,62.09
2017-10-25T05:25:54.152Z,61.99
2017-10-25T05:26:26.223Z,61.99
2017-10-25T05:26:58.410Z,61.99
2017-10-25T05:27:30.553Z,62.09
2017-10-25T05:28:02.692Z,62.18
2017-10-25T05:28:34.835Z,62.09
2017-10-25T05:29:07.038Z,62.18
2017-10-25T05:29:39.228Z,62.09
2017-10-25T05:30:11.385Z,61.99
2017-10-25T05:30:43.535Z,61.99
2017-10-25T05:31:15.578Z,61.99
2017-10-25T05:31:47.835Z,61.99
2017-10-25T05:32:20.078Z,61.99
2017-10-25T05:32:52.237Z,61.9
2017-10-25T05:33:24.421Z,62.38
2017-10-25T05:33:56.532Z,61.9
2017-10-25T05:34:28.884Z,61.9
2017-10-25T05:35:01.078Z,61.99
2017-10-25T05:35:33.347Z,61.99
2017-10-25T05:36:05.433Z,61.9
2017-10-25T05:36:37.598Z,62.28
2017-10-25T05:37:09.684Z,62.28
2017-10-25T05:37:41.823Z,62.18
2017-10-25T05:38:13.852Z,62.31
2017-10-25T05:38:46.032Z,62.12
2017-10-25T05:39:18.112Z,62.18
2017-10-25T05:39:50.243Z,61.99
2017-10-25T05:40:22.398Z,62.28
2017-10-25T05:40:54.578Z,62.38
2017-10-25T05:41:26.703Z,61.99
2017-10-25T05:41:58.745Z,62.12
2017-10-25T05:42:30.877Z,62.28
2017-10-25T05:43:02.992Z,62.22
2017-10-25T05:43:35.182Z,62.22
2017-10-25T05:44:07.226Z,62.12
2017-10-25T05:44:39.279Z,62.12
2017-10-25T05:45:11.361Z,62.18
2017-10-25T05:45:43.505Z,62.22
2017-10-25T05:46:15.596Z,62.12
2017-10-25T05:46:47.698Z,62.22
2017-10-25T05:47:20.476Z,62.28
2017-10-25T05:47:52.608Z,62.22
2017-10-25T05:48:24.692Z,62.31
2017-10-25T05:48:56.782Z,62.12
2017-10-25T05:49:28.812Z,62.22
2017-10-25T05:50:00.894Z,62.31
2017-10-25T05:50:33.130Z,62.22
2017-10-25T05:51:05.181Z,62.22
2017-10-25T05:51:37.313Z,62.31
2017-10-25T05:52:10.082Z,62.41
2017-10-25T05:52:42.156Z,62.31
2017-10-25T05:53:14.358Z,62.41
2017-10-25T05:53:46.571Z,62.22
2017-10-25T05:54:18.762Z,62.41
2017-10-25T05:54:50.917Z,62.41
2017-10-25T05:55:23.137Z,62.31
2017-10-25T05:55:55.423Z,62.31
2017-10-25T05:56:27.624Z,62.41
2017-10-25T05:56:59.753Z,62.51
2017-10-25T05:57:31.886Z,62.31
2017-10-25T05:58:04.086Z,62.41
2017-10-25T05:58:36.275Z,62.31
2017-10-25T05:59:08.581Z,62.41
2017-10-25T05:59:40.713Z,62.22
2017-10-25T06:00:12.864Z,62.31
2017-10-25T06:00:45.018Z,62.41
2017-10-25T06:01:17.796Z,62.41
2017-10-25T06:01:49.932Z,62.31
2017-10-25T06:02:21.993Z,62.31
2017-10-25T06:02:54.156Z,62.22
2017-10-25T06:03:26.249Z,62.22
2017-10-25T06:03:58.469Z,62.22
2017-10-25T06:04:30.711Z,62.22
2017-10-25T06:05:03.032Z,62.22
2017-10-25T06:05:35.209Z,62.22
2017-10-25T06:06:07.244Z,62.12
2017-10-25T06:06:39.433Z,62.31
2017-10-25T06:07:11.545Z,62.22
2017-10-25T06:07:43.759Z,62.22
2017-10-25T06:08:16.530Z,62.12
2017-10-25T06:08:48.717Z,62.12
2017-10-25T06:09:20.739Z,62.22
2017-10-25T06:09:52.992Z,62.31
2017-10-25T06:10:25.220Z,62.22
2017-10-25T06:10:57.351Z,62.12
2017-10-25T06:11:29.557Z,62.12
2017-10-25T06:12:01.708Z,62.12
2017-10-25T06:12:33.860Z,62.12
2017-10-25T06:13:06.118Z,62.31
2017-10-25T06:13:38.136Z,62.31
2017-10-25T06:14:10.309Z,62.12
2017-10-25T06:14:42.378Z,62.31
2017-10-25T06:15:14.453Z,62.31
2017-10-25T06:15:46.614Z,62.12
2017-10-25T06:16:18.750Z,62.31
2017-10-25T06:16:50.831Z,62.22
2017-10-25T06:17:22.915Z,62.12
2017-10-25T06:17:55.203Z,62.12
2017-10-25T06:18:27.448Z,62.51
2017-10-25T06:18:59.532Z,62.31
2017-10-25T06:19:31.558Z,62.51
2017-10-25T06:20:03.691Z,62.31
2017-10-25T06:20:35.832Z,62.02
2017-10-25T06:21:07.889Z,61.93
2017-10-25T06:21:40.077Z,62.41
2017-10-25T06:22:12.263Z,62.41
2017-10-25T06:22:44.291Z,62.31
2017-10-25T06:23:16.311Z,62.22
2017-10-25T06:23:48.488Z,62.31
2017-10-25T06:24:20.630Z,61.93
2017-10-25T06:24:52.935Z,62.31
2017-10-25T06:25:25.073Z,62.31
2017-10-25T06:25:57.268Z,62.31
2017-10-25T06:26:29.415Z,62.31
2017-10-25T06:27:01.521Z,62.51
2017-10-25T06:27:33.764Z,62.41
2017-10-25T06:28:05.762Z,62.41
2017-10-25T06:28:37.890Z,61.93
2017-10-25T06:29:10.088Z,61.74
2017-10-25T06:29:42.254Z,62.41
2017-10-25T06:30:14.406Z,62.41
2017-10-25T06:30:46.643Z,61.83
2017-10-25T06:31:18.738Z,62.31
2017-10-25T06:31:50.862Z,61.93
2017-10-25T06:32:22.918Z,62.31
2017-10-25T06:32:55.081Z,62.34
2017-10-25T06:33:27.248Z,61.93
2017-10-25T06:33:59.334Z,62.41
2017-10-25T06:34:31.522Z,62.41
2017-10-25T06:35:03.634Z,62.41
2017-10-25T06:35:35.972Z,61.83
2017-10-25T06:36:08.244Z,62.41
2017-10-25T06:36:40.373Z,61.83
2017-10-25T06:37:12.572Z,61.93
2017-10-25T06:37:44.671Z,62.63
2017-10-25T06:38:16.949Z,61.83
2017-10-25T06:38:49.145Z,62.54
2017-10-25T06:39:21.344Z,62.41
2017-10-25T06:39:53.529Z,62.41
2017-10-25T06:40:25.629Z,61.64
2017-10-25T06:40:57.689Z,61.74
2017-10-25T06:41:29.849Z,61.64
2017-10-25T06:42:01.936Z,61.96
2017-10-25T06:42:34.116Z,61.74
2017-10-25T06:43:06.211Z,61.93
2017-10-25T06:43:38.350Z,61.83
2017-10-25T06:44:10.539Z,61.74
2017-10-25T06:44:42.722Z,61.86
2017-10-25T06:45:14.884Z,62.6
2017-10-25T06:45:47.002Z,61.74
2017-10-25T06:46:19.230Z,61.93
2017-10-25T06:46:51.511Z,61.93
2017-10-25T06:47:23.679Z,62.44
2017-10-25T06:47:55.856Z,61.74
2017-10-25T06:48:27.926Z,61.67
2017-10-25T06:49:00.287Z,61.77
2017-10-25T06:49:32.435Z,61.74
2017-10-25T06:50:04.580Z,61.77
2017-10-25T06:50:36.663Z,62.44
2017-10-25T06:51:08.852Z,61.86
2017-10-25T06:51:41.051Z,61.67
2017-10-25T06:52:13.157Z,62.63
2017-10-25T06:52:45.253Z,62.63
2017-10-25T06:53:17.405Z,61.77
2017-10-25T06:53:49.542Z,62.63
2017-10-25T06:54:21.676Z,61.57
2017-10-25T06:54:53.841Z,61.77
2017-10-25T06:55:26.039Z,61.77